Terminal Aerodrome Forecast
Issued by NWS

Home | Current Version | Previous Version | Text Only | Print | Product List | Glossary On
Versions: 1 2 3 4 5 6 7 8 9 10 11 12 13 14
000
FTUS42 KMLB 310500
TAFTIX
TAF
KTIX 310538Z 3106/0106 26006KT P6SM VCSH SCT040 BKN110
      TEMPO 3107/3111 BKN030 BKN060
     FM311400 31007KT P6SM SCT040 SCT250
      AMD NOT SKED TIL 311100=

USA.gov is the U.S. government's official web portal to all federal, state and local government web resources and services.